Flight Track Log - Related Links

Times and Time Zones

All times are in EDT time to prevent confusion due to time zone crossing. See the N693PD flight status page for this flight to view local times or setup timezone preferences in your user account.

Time Position Orientation Groundspeed Altitude Reporting Facility
EDT Latitude Longitude Course Direction KTS km/h feet Rate Location/Type
Sat 08h49:51 33.9667 -84.5000 176° South 165 306 4.800  Level Atlanta TRACON
Sat 08h51:00 33.9040 -84.5470 212° Southwest  Level FlightAware Approximate
Sat 08h51:51 33.8667 -84.4167 212° Southwest 243 451 5.100  Level Atlanta TRACON
Sat 08h52:51 33.8000 -84.4000 168° South 240 444 5.100  Level Atlanta TRACON
Sat 08h54:00 33.6729 -84.3808 160° South  Level Estimated
Sat 08h54:46 33.6833 -84.4000 180° South 237 439 5.100  Level Atlanta TRACON
Sat 08h55:00 33.6089 -84.3755 176° South  Level FlightAware Approximate
Sat 08h55:52 33.6000 -84.4000 180° South 259 480 5.000  Level Atlanta TRACON
Sat 08h56:51 33.5333 -84.4000 180° South 237 439 5.100 504 Climbing Atlanta TRACON
Sat 08h57:51 33.4833 -84.4000 180° South 219 406 6.000 500 Climbing Atlanta TRACON
Sat 08h58:51 33.4167 -84.3833 168° South 240 444 6.100 550 Climbing Atlanta TRACON
Sat 08h59:51 33.3500 -84.3500 157° South 225 417 7.100 903 Climbing Atlanta TRACON
Sat 09h00:44 33.3097 -84.3347 162° South 219 406 7.800 903 Climbing Atlanta Center
Sat 09h01:44 33.2514 -84.3094 160° South 219 406 8.800 1.000 Climbing Atlanta Center
Sat 09h02:44 33.1928 -84.2847 161° South 224 415 9.800 1.000 Climbing Atlanta Center
Sat 09h03:44 33.1325 -84.2572 159° South 231 428 10.800 650 Climbing Atlanta Center
Sat 09h04:44 33.0678 -84.2347 164° South 231 428 11.100 150 Climbing Atlanta Center
Sat 09h05:44 32.9947 -84.2022 160° South 250 463 11.100  Level Atlanta Center
Sat 09h06:44 32.9322 -84.1675 155° Southeast 256 475 11.100 300 Level Atlanta Center
Sat 09h07:44 32.8633 -84.1428 163° South 262 486 11.700 750 Climbing Atlanta Center
Sat 09h08:44 32.7986 -84.1178 162° South 262 486 12.600 950 Climbing Atlanta Center
Sat 09h09:44 32.7381 -84.0906 159° South 249 462 13.600 1.000 Climbing Atlanta Center
Sat 09h10:44 32.6797 -84.0683 162° South 239 443 14.600 1.000 Climbing Atlanta Center
Sat 09h11:44 32.6211 -84.0439 161° South 229 425 15.600 950 Climbing Atlanta Center
Sat 09h12:44 32.5647 -84.0217 162° South 224 415 16.500 950 Climbing Atlanta Center
Sat 09h13:44 32.5083 -83.9944 158° South 224 415 17.500 850 Climbing Atlanta Center
Sat 09h14:44 32.4542 -83.9725 161° South 218 404 18.200 920 Climbing Atlanta Center
Sat 09h16:27 32.3544 -83.9303 160° South 216 401 20.000 1.031 Climbing Jacksonville Center
Sat 09h17:27 32.3003 -83.9078 161° South 216 401 21.000 950 Climbing Jacksonville Center
Sat 09h18:27 32.2461 -83.8850 160° South 206 381 21.900 900 Climbing Jacksonville Center
Sat 09h19:27 32.1919 -83.8597 158° South 206 381 22.800 550 Climbing Jacksonville Center
Sat 09h20:27 32.1339 -83.8372 162° South 212 393 23.000 100 Climbing Jacksonville Center
Sat 09h21:27 32.0692 -83.8094 160° South 231 428 23.000  Level Jacksonville Center
Sat 09h22:27 31.9986 -83.7794 160° South 253 468 23.000  Level Jacksonville Center
Sat 09h23:27 31.9297 -83.7517 161° South 265 491 23.000  Level Jacksonville Center
Sat 09h24:07 31.8797 -83.7342 163° South 269 499 23.000  Level Jacksonville Center
Sat 09h24:27 31.8672 -83.7219 140° Southeast 265 491 23.000  Level Jacksonville Center
Sat 09h25:19 31.7944 -83.6967 164° South 270 501 23.000  Level Jacksonville Center
Sat 09h26:20 31.7278 -83.6669 159° South 269 499 23.000  Level Jacksonville Center
Sat 09h27:21 31.6528 -83.6419 164° South 271 502 23.000  Level Jacksonville Center
Sat 09h28:21 31.5778 -83.6072 158° South 273 505 23.000  Level Jacksonville Center
Sat 09h29:27 31.5069 -83.5772 160° South 276 512 23.000  Level Jacksonville Center
Sat 09h30:22 31.4319 -83.5475 161° South 274 507 23.000  Level Jacksonville Center
Sat 09h31:27 31.3633 -83.5178 160° South 276 512 23.000  Level Jacksonville Center
Sat 09h32:24 31.2883 -83.4906 163° South 275 509 23.000  Level Jacksonville Center
Sat 09h33:24 31.2172 -83.4586 159° South 276 512 23.000  Level Jacksonville Center
Sat 09h34:25 31.1403 -83.4289 162° South 276 512 23.000  Level Jacksonville Center
Sat 09h35:25 31.0736 -83.3994 159° South 273 505 23.000  Level Jacksonville Center
Sat 09h36:26 30.9986 -83.3725 163° South 272 504 23.000  Level Jacksonville Center
Sat 09h38:15 30.8733 -83.3211 161° South 293 542 23.000  Level Jacksonville Center
Sat 09h39:15 30.8044 -83.2917 160° South 287 531 23.000  Level Jacksonville Center
Sat 09h40:15 30.7525 -83.2286 134° Southeast 264 489 23.000  Level Jacksonville Center
Sat 09h41:15 30.7089 -83.1536 124° Southeast 264 489 23.000  Level Jacksonville Center
Sat 09h42:15 30.6653 -83.0786 124° Southeast 274 507 23.000  Level Jacksonville Center
Sat 09h43:15 30.6236 -83.0036 123° Southeast 279 517 23.000  Level Jacksonville Center
Sat 09h44:15 30.5547 -82.9650 154° Southeast 264 489 23.000  Level Jacksonville Center
Sat 09h45:15 30.4858 -82.9286 156° South 264 489 23.000  Level Jacksonville Center
Sat 09h46:15 30.4147 -82.8878 154° Southeast 269 499 23.000  Level Jacksonville Center
Sat 09h47:15 30.3458 -82.8517 156° South 269 499 23.000  Level Jacksonville Center
Sat 09h48:15 30.2769 -82.8133 154° Southeast 274 507 23.000  Level Jacksonville Center
Sat 09h49:16 30.2081 -82.7747 154° Southeast 274 507 23.000  Level Jacksonville Center
Sat 09h50:15 30.1411 -82.7389 155° Southeast 279 517 23.000  Level Jacksonville Center
Sat 09h51:15 30.0700 -82.7006 155° Southeast 279 517 23.000 -200 Level Jacksonville Center
Sat 09h52:15 29.9950 -82.6647 158° South 279 517 22.600 -800 Descending Jacksonville Center
Sat 09h53:15 29.9197 -82.6217 154° Southeast 290 538 21.400 -1.200 Descending Jacksonville Center
Sat 09h54:15 29.8444 -82.5814 155° Southeast 296 549 20.200 -1.200 Descending Jacksonville Center
Sat 09h55:15 29.7692 -82.5433 156° South 296 549 19.000 -1.150 Descending Jacksonville Center
Sat 09h56:15 29.6897 -82.5006 155° Southeast 296 549 17.900 -1.000 Descending Jacksonville Center
Sat 09h57:15 29.6144 -82.4603 155° Southeast 296 549 17.000 -1.000 Descending Jacksonville Center
Sat 09h58:15 29.5392 -82.4175 154° Southeast 296 549 15.900 -1.050 Descending Jacksonville Center
Sat 09h59:15 29.4597 -82.3797 158° South 296 549 14.900 -1.050 Descending Jacksonville Center
Sat 10h00:15 29.3842 -82.3372 154° Southeast 296 549 13.800 -1.118 Descending Jacksonville Center
Sat 10h00:57 29.3319 -82.3136 158° South 295 546 13.000 -1.000 Descending Jacksonville Center
Sat 10h01:15 29.3111 -82.2972 146° Southeast 296 549 12.800 -1.068 Descending Jacksonville Center
Sat 10h02:10 29.2419 -82.2642 157° South 291 539 11.700 -1.100 Descending Jacksonville Center
Sat 10h03:15 29.1667 -82.2194 153° Southeast 296 549 10.600 -984 Descending Jacksonville Center
Sat 10h04:12 29.1244 -82.1558 127° Southeast 272 504 9.700 -950 Descending Jacksonville Center
Sat 10h05:15 29.0739 -82.0825 128° Southeast 272 504 8.700 -878 Descending Jacksonville Center
Sat 10h06:15 29.0275 -82.0139 128° Southeast 272 504 7.900 -800 Descending Jacksonville Center
Sat 10h07:15 28.9792 -81.9550 133° Southeast 261 483 7.100 -450 Descending Jacksonville Center
Sat 10h08:15 28.9411 -81.8936 125° Southeast 261 483 7.000 -50 Descending Jacksonville Center
Sat 10h09:15 28.8989 -81.8347 129° Southeast 248 459 7.000  Level Jacksonville Center
Sat 10h10:16 28.8525 -81.7689 129° Southeast 248 459 7.000 -94 Level Jacksonville Center
Sat 10h11:22 28.8000 -81.7167 139° Southeast 242 447 6.800 -567 Descending Orlando TRACON
Sat 10h12:23 28.7333 -81.6833 156° South 231 428 5.800 -942 Descending Orlando TRACON
Sat 10h13:23 28.6833 -81.6500 150° Southeast 221 409 4.900 -857 Descending Orlando TRACON
Sat 10h14:29 28.6167 -81.6000 147° Southeast 224 415 4.000 -429 Descending Orlando TRACON
Sat 10h15:29 28.5667 -81.5667 150° Southeast 222 410 4.000 -476 Level Orlando TRACON
Sat 10h16:35 28.5000 -81.5333 156° South 219 406 3.000 -952 Descending Orlando TRACON
Sat 10h17:35 28.4667 -81.5000 139° Southeast 202 373 2.000 -496 Descending Orlando TRACON
Sat 10h18:36 28.5000 -81.4500 53° Northeast 147 272 2.000 -248 Level Orlando TRACON
Sat 10h19:36 28.5167 -81.4167 60° Northeast 134 248 1.500 -550 Descending Orlando TRACON
Sat 10h20:36 28.5333 -81.3833 60° Northeast 122 225 900 -595 Descending Orlando TRACON
Sat 10h21:37 28.5333 -81.3500 90° East 108 200 300 -590 Descending Orlando TRACON
Sat 10h23:00 28.5455 -81.3329 90° East  Level Estimated
Sat 10h30:00 28.5455 -81.3329 90° East  Level Estimated
Sat 10h31:00 28.5455 -81.3329 90° East  Level Estimated
Sat 10h32:00 28.5455 -81.3329 90° East  Level Estimated
Sat 10h33:00 28.5455 -81.3329 90° East  Level Estimated

Login

Don't have an account? Register now (free) for customized features, flight alerts, and more!